イスタンブル の空港の天気 - METARとTAF

アタテュルク国際空港(イスタンブル) ( LTBA / IST ) - トルコ イスタンブル
飛行場実況気象(Metar)
観測時間12/10 08:20 EET (12/10 05:20 UTC)
風向・風速東南東 2m/s
視程10km以上
天気現象
少しの雲 雲底高度 460m
全天の8割程度の雲 雲底高度 1010m
気温10℃
湿度87%
気圧1007hPa
METARLTBA 100520Z 11004KT 070V170 9999 FEW015 BKN033 10/08 Q1007 NOSIG
過去の天気等 Google飛行場航空写真 Wunderground天気予報

過去48時間のMETAR

飛行場予報(TAF)
発表時間: 12/10 07:40 EET (12/10 04:40 UTC)
予報対象時間: 10日9時 EET ~ 11日15時 EET
風向・風速不定 1m/s
視程10km以上
天気現象弱いしゅう雨
少しの雲 雲底高度 460m
全天の8割程度の雲 雲底高度 910m
10日12時 EET ~ 10日15時 EET に徐々に
風向・風速東北東 6m/s
10日15時 EET ~ 10日19時 EET に一時的に
視程4000m
天気現象しゅう雨
少しの積乱雲 雲底高度 550m
全天の8割程度の雲 雲底高度 760m
10日19時 EET ~ 10日23時 EET に一時的に
視程4000m
天気現象しゅう雨
少しの積乱雲 雲底高度 550m
全天の8割程度の雲 雲底高度 760m
10日21時 EET ~ 10日24時 EET に徐々に
風向・風速北 8m/s 瞬間風速 13m/s
11日4時 EET ~ 11日7時 EET に徐々に
風向・風速西北西 6m/s
11日8時 EET ~ 11日11時 EET に徐々に
全天の4割程度の雲 雲底高度 1070m
全天の8割程度の雲 雲底高度 3050m
TAF LTBA 100440Z 1006/1112 VRB02KT 9999 -SHRA FEW015 BKN030
BECMG 1009/1012 07012KT
TEMPO 1012/1016 4000 SHRA FEW018CB BKN025
TEMPO 1016/1020 4000 SHRA FEW018CB BKN025
BECMG 1018/1021 36015G25KT
BECMG 1101/1104 30012KT
BECMG 1105/1108 SCT035 BKN100